Time;durP1;ratioP1;P1;durP2;ratioP2;P2;SDS_P1;SDS_P2;PMS_P1;PMS_P2;Temp;Humidity;BMP_temperature;BMP_pressure;BME280_temperature;BME280_humidity;BME280_pressure;Samples;Min_cycle;Max_cycle;Signal;HPM_P1;HPM_P2
2021/04/13 00:01:11;;;;;;;5.38;2.60;;;15.40;95.50;;;;;;5073410;28;20024;-68
2021/04/13 00:03:43;;;;;;;5.47;2.80;;;15.40;95.70;;;;;;5073283;28;20445;-68
2021/04/13 00:06:15;;;;;;;3.72;2.30;;;15.40;95.90;;;;;;5073376;28;20464;-68
2021/04/13 00:08:41;;;;;;;6.15;2.65;;;15.30;95.90;;;;;;5073335;28;20108;-66
2021/04/13 00:11:10;;;;;;;6.13;2.47;;;15.30;96.60;;;;;;5072459;28;20055;-66
2021/04/13 00:13:39;;;;;;;4.65;2.65;;;15.40;96.10;;;;;;5072713;28;20075;-69
2021/04/13 00:16:19;;;;;;;5.32;2.30;;;15.30;96.40;;;;;;5072987;28;20043;-67
2021/04/13 00:18:46;;;;;;;5.57;2.55;;;15.30;96.30;;;;;;5073195;28;20024;-66
2021/04/13 00:21:17;;;;;;;6.00;2.63;;;15.30;96.40;;;;;;5074810;28;20048;-67
2021/04/13 00:23:45;;;;;;;3.65;2.63;;;15.30;96.50;;;;;;5069428;28;20029;-66
2021/04/13 00:26:18;;;;;;;4.32;2.60;;;15.30;96.50;;;;;;5072808;28;20029;-66
2021/04/13 00:28:48;;;;;;;7.22;2.90;;;15.30;96.60;;;;;;5081468;28;20043;-68
2021/04/13 00:31:44;;;;;;;3.70;2.60;;;15.30;96.90;;;;;;5071792;28;20111;-65
2021/04/13 00:34:09;;;;;;;5.43;2.80;;;15.20;96.70;;;;;;5072916;28;20023;-67
2021/04/13 00:36:35;;;;;;;6.47;2.60;;;15.20;96.80;;;;;;5072704;28;20032;-68
2021/04/13 00:39:17;;;;;;;5.47;2.60;;;15.20;96.90;;;;;;5073106;28;20020;-66
2021/04/13 00:41:50;;;;;;;5.72;2.35;;;15.20;96.80;;;;;;5072695;28;20020;-67
2021/04/13 00:44:17;;;;;;;4.72;2.83;;;15.20;96.90;;;;;;5072729;28;20025;-68
2021/04/13 00:46:48;;;;;;;3.55;2.58;;;15.20;97.00;;;;;;5072436;28;20037;-69
2021/04/13 00:49:17;;;;;;;5.50;2.70;;;15.20;96.90;;;;;;5072516;28;20020;-69
2021/04/13 00:51:47;;;;;;;3.85;2.72;;;15.10;97.00;;;;;;5072440;28;20103;-69
2021/04/13 00:54:26;;;;;;;5.30;2.60;;;15.10;97.10;;;;;;5072529;28;20017;-69
2021/04/13 00:56:53;;;;;;;5.30;2.70;;;15.10;97.10;;;;;;5072269;28;20029;-69
2021/04/13 00:59:20;;;;;;;3.72;2.55;;;15.10;97.40;;;;;;5072425;28;20021;-69
2021/04/13 01:01:57;;;;;;;4.65;2.67;;;15.00;97.10;;;;;;5058291;28;20390;-69
2021/04/13 01:04:35;;;;;;;5.50;2.80;;;15.00;97.30;;;;;;5053513;28;20021;-69
2021/04/13 01:07:07;;;;;;;4.25;2.85;;;15.00;97.10;;;;;;5052175;28;20020;-69
2021/04/13 01:09:41;;;;;;;5.43;3.20;;;15.00;97.30;;;;;;5052633;28;20503;-69
2021/04/13 01:12:20;;;;;;;4.32;2.65;;;15.00;97.30;;;;;;5052391;28;20029;-70
2021/04/13 01:14:47;;;;;;;5.07;3.13;;;15.00;97.40;;;;;;5090349;28;20032;-69
2021/04/13 01:17:13;;;;;;;3.63;2.22;;;15.00;97.60;;;;;;5092306;28;20570;-70
2021/04/13 01:20:00;;;;;;;4.35;2.80;;;15.00;97.70;;;;;;5092455;28;20024;-69
2021/04/13 01:22:32;;;;;;;5.20;2.70;;;15.00;97.80;;;;;;5092028;28;20028;-71
2021/04/13 01:25:04;;;;;;;6.40;2.88;;;14.90;97.90;;;;;;5092206;28;20547;-68
2021/04/13 01:27:30;;;;;;;3.90;3.03;;;14.90;97.80;;;;;;5092216;28;20045;-70
2021/04/13 01:30:00;;;;;;;4.35;2.80;;;14.90;97.90;;;;;;5092188;28;20020;-70
2021/04/13 01:32:26;;;;;;;4.30;2.72;;;14.90;97.90;;;;;;5055622;28;20496;-69
2021/04/13 01:35:06;;;;;;;5.55;3.03;;;14.90;98.00;;;;;;5071798;28;20032;-69
2021/04/13 01:37:56;;;;;;;6.18;3.00;;;14.90;98.40;;;;;;5071887;28;20032;-68
2021/04/13 01:40:40;;;;;;;10.10;2.55;;;14.90;98.40;;;;;;5071734;28;20543;-69
2021/04/13 01:43:06;;;;;;;4.97;2.72;;;14.80;98.50;;;;;;5072157;28;20028;-69
2021/04/13 01:45:34;;;;;;;5.60;3.30;;;14.80;98.40;;;;;;5071621;28;20032;-68
2021/04/13 01:48:02;;;;;;;4.90;3.00;;;14.80;98.40;;;;;;5071193;28;20036;-69
2021/04/13 01:50:32;;;;;;;3.92;2.90;;;14.80;98.40;;;;;;5071755;28;20051;-68
2021/04/13 01:53:06;;;;;;;4.20;2.90;;;14.80;98.40;;;;;;5071686;28;20017;-68
2021/04/13 01:55:33;;;;;;;3.55;2.80;;;14.80;98.40;;;;;;5071683;28;20032;-68
2021/04/13 01:58:18;;;;;;;4.32;2.83;;;14.80;98.30;;;;;;5071626;28;20021;-68
2021/04/13 02:00:50;;;;;;;3.40;2.67;;;14.70;98.40;;;;;;5064092;28;20029;-68
2021/04/13 02:03:32;;;;;;;4.97;2.80;;;14.70;98.40;;;;;;5067944;28;20464;-68
2021/04/13 02:06:04;;;;;;;4.95;3.25;;;14.70;98.30;;;;;;5091850;28;20075;-68
2021/04/13 02:08:38;;;;;;;3.90;3.15;;;14.70;98.40;;;;;;5091783;28;20020;-69
2021/04/13 02:11:08;;;;;;;;;;;14.70;98.50;;;;;;5092352;28;20031;-68
2021/04/13 02:13:35;;;;;;;4.65;3.25;;;14.70;98.40;;;;;;5091556;28;20409;-68
2021/04/13 02:16:09;;;;;;;4.30;3.40;;;14.60;98.30;;;;;;5091695;28;20580;-70
2021/04/13 02:18:42;;;;;;;4.10;2.80;;;14.60;99.00;;;;;;5091624;28;20488;-71
2021/04/13 02:21:15;;;;;;;5.67;2.93;;;14.60;98.60;;;;;;5073896;28;20357;-70
2021/04/13 02:23:54;;;;;;;4.13;3.00;;;14.60;98.70;;;;;;5091762;28;20510;-67
2021/04/13 02:26:21;;;;;;;4.80;3.38;;;14.60;98.60;;;;;;5091715;28;20032;-69
2021/04/13 02:28:49;;;;;;;4.43;2.83;;;14.50;98.60;;;;;;5091492;28;20044;-68
2021/04/13 02:31:36;;;;;;;4.32;3.25;;;14.60;98.50;;;;;;5078874;28;20043;-69
2021/04/13 02:34:09;;;;;;;4.00;3.15;;;14.50;98.40;;;;;;5071258;28;20496;-70
2021/04/13 02:36:37;;;;;;;5.00;3.05;;;14.50;98.50;;;;;;5071325;28;20036;-70
2021/04/13 02:39:05;;;;;;;4.22;3.05;;;14.50;98.50;;;;;;5070759;28;20055;-70
2021/04/13 02:41:34;;;;;;;5.30;3.13;;;14.50;98.50;;;;;;5052725;28;20098;-70
2021/04/13 02:44:10;;;;;;;4.38;3.22;;;14.50;98.60;;;;;;5071307;28;20044;-69
2021/04/13 02:46:37;;;;;;;4.10;3.22;;;14.50;98.60;;;;;;5071225;28;20380;-70
2021/04/13 02:49:11;;;;;;;4.15;3.22;;;14.40;98.70;;;;;;5071142;28;20139;-69
2021/04/13 02:51:41;;;;;;;5.03;3.13;;;14.50;99.40;;;;;;5071101;28;20029;-69
2021/04/13 02:54:15;;;;;;;4.90;3.35;;;14.40;98.80;;;;;;5071051;28;20434;-69
2021/04/13 02:56:45;;;;;;;4.97;3.17;;;14.50;98.90;;;;;;5071273;28;20043;-68
2021/04/13 02:59:13;;;;;;;4.72;3.28;;;14.40;98.90;;;;;;5088780;28;20172;-68
2021/04/13 03:01:49;;;;;;;4.85;3.22;;;14.40;98.80;;;;;;5065180;28;20389;-68
2021/04/13 03:04:16;;;;;;;4.60;3.30;;;14.40;98.80;;;;;;5054712;28;20032;-69
2021/04/13 03:06:49;;;;;;;5.25;3.38;;;14.40;98.80;;;;;;5054773;28;20048;-69
2021/04/13 03:09:17;;;;;;;4.03;3.22;;;14.40;98.80;;;;;;5054367;28;20513;-70
2021/04/13 03:12:10;;;;;;;6.15;3.53;;;14.40;98.70;;;;;;5054726;28;20010;-70
2021/04/13 03:14:40;;;;;;;4.78;3.65;;;14.40;98.70;;;;;;5051963;28;20094;-69
2021/04/13 03:17:14;;;;;;;4.10;3.33;;;14.40;98.70;;;;;;5054211;28;20044;-69
2021/04/13 03:19:43;;;;;;;4.90;3.38;;;14.30;98.50;;;;;;5054597;28;20108;-71
2021/04/13 03:22:09;;;;;;;5.25;3.45;;;14.30;98.30;;;;;;5054282;28;20068;-71
2021/04/13 03:24:41;;;;;;;5.78;3.22;;;14.30;98.20;;;;;;5054044;28;20041;-67
2021/04/13 03:27:16;;;;;;;5.57;3.20;;;14.30;98.20;;;;;;5054233;28;20027;-69
2021/04/13 03:30:09;;;;;;;5.22;3.00;;;14.30;98.10;;;;;;5054675;28;20025;-68
2021/04/13 03:32:43;;;;;;;4.70;3.22;;;14.20;98.20;;;;;;5056174;28;20025;-69
2021/04/13 03:35:09;;;;;;;3.97;3.45;;;14.20;98.40;;;;;;5073987;28;20499;-68
2021/04/13 03:37:40;;;;;;;7.00;3.35;;;14.20;98.20;;;;;;5073882;28;20107;-70
2021/04/13 03:40:13;;;;;;;4.13;3.50;;;14.20;98.50;;;;;;5074014;28;20500;-68
2021/04/13 03:42:39;;;;;;;4.15;3.35;;;14.20;98.40;;;;;;5074077;28;20029;-69
2021/04/13 03:45:07;;;;;;;4.03;3.15;;;14.20;98.50;;;;;;5073901;28;20031;-68
2021/04/13 03:47:36;;;;;;;6.82;3.65;;;14.20;98.60;;;;;;5073793;28;20025;-68
2021/04/13 03:50:09;;;;;;;4.90;3.60;;;14.20;98.50;;;;;;5073721;28;20027;-70
2021/04/13 03:52:35;;;;;;;5.65;3.50;;;14.20;98.50;;;;;;5055628;28;20025;-69
2021/04/13 03:55:22;;;;;;;9.98;3.80;;;14.10;98.50;;;;;;5073494;28;20504;-69
2021/04/13 03:57:48;;;;;;;6.20;3.20;;;14.10;98.40;;;;;;5081306;28;20031;-68
2021/04/13 04:00:19;;;;;;;5.15;3.20;;;14.10;98.40;;;;;;5088042;28;20066;-68
2021/04/13 04:02:44;;;;;;;4.60;3.17;;;14.10;98.20;;;;;;5063774;28;20116;-68
2021/04/13 04:05:14;;;;;;;5.15;3.50;;;14.10;98.10;;;;;;5053500;28;20515;-67
2021/04/13 04:07:47;;;;;;;7.45;3.33;;;14.00;97.90;;;;;;5065463;28;20067;-67
2021/04/13 04:10:45;;;;;;;4.93;3.72;;;14.00;97.90;;;;;;5073759;28;20392;-69
2021/04/13 04:13:21;;;;;;;5.50;3.65;;;14.00;97.80;;;;;;5072852;28;20369;-68
2021/04/13 04:16:01;;;;;;;5.32;3.45;;;14.00;97.60;;;;;;5073597;28;20028;-68
2021/04/13 04:18:34;;;;;;;4.97;3.40;;;14.00;97.80;;;;;;5073185;28;20511;-67
2021/04/13 04:21:02;;;;;;;5.70;3.72;;;14.00;98.10;;;;;;5073167;28;20542;-67
2021/04/13 04:23:33;;;;;;;3.75;3.35;;;14.00;98.10;;;;;;5072912;28;20476;-69
2021/04/13 04:26:06;;;;;;;4.93;3.40;;;14.00;98.30;;;;;;5073277;28;20047;-69
2021/04/13 04:28:41;;;;;;;5.22;3.78;;;13.90;98.10;;;;;;5072959;28;20028;-67
2021/04/13 04:31:44;;;;;;;4.90;3.85;;;13.90;98.20;;;;;;5058309;28;20029;-69
2021/04/13 04:34:15;;;;;;;6.90;3.70;;;13.90;98.10;;;;;;5052864;28;20500;-68
2021/04/13 04:36:44;;;;;;;5.95;3.83;;;13.90;98.40;;;;;;5052725;28;20036;-71
2021/04/13 04:39:32;;;;;;;4.45;3.42;;;13.90;98.40;;;;;;5052736;28;20047;-69
2021/04/13 04:42:07;;;;;;;4.93;3.63;;;13.90;98.20;;;;;;5052850;28;20027;-68
2021/04/13 04:44:33;;;;;;;4.88;3.83;;;13.90;98.50;;;;;;5052605;28;20464;-69
2021/04/13 04:46:59;;;;;;;5.03;3.55;;;13.90;98.40;;;;;;5052635;28;20017;-69
2021/04/13 04:49:47;;;;;;;5.72;3.20;;;13.80;98.20;;;;;;5052674;28;20029;-70
2021/04/13 04:52:13;;;;;;;6.13;3.78;;;13.80;98.50;;;;;;5062071;28;20027;-71
2021/04/13 04:54:39;;;;;;;5.32;3.35;;;13.80;98.20;;;;;;5092784;28;20032;-69
2021/04/13 04:57:05;;;;;;;5.40;3.90;;;13.80;98.40;;;;;;5092477;28;20040;-69
2021/04/13 04:59:31;;;;;;;5.07;3.90;;;13.80;98.30;;;;;;5090521;28;20020;-70
2021/04/13 05:01:57;;;;;;;4.65;3.53;;;13.80;98.40;;;;;;5086011;28;20059;-69
2021/04/13 05:04:22;;;;;;;5.35;3.67;;;13.80;98.30;;;;;;5072451;28;20429;-69
2021/04/13 05:06:48;;;;;;;5.50;3.72;;;13.70;98.40;;;;;;5072634;28;20029;-69
2021/04/13 05:09:13;;;;;;;5.72;4.30;;;13.70;98.20;;;;;;5072395;28;20040;-69
2021/04/13 05:11:39;;;;;;;5.50;3.60;;;13.70;98.20;;;;;;5079753;28;20039;-69
2021/04/13 05:14:05;;;;;;;5.63;3.58;;;13.70;98.10;;;;;;5092538;28;20024;-71
2021/04/13 05:16:30;;;;;;;5.55;3.60;;;13.70;98.30;;;;;;5092402;28;20039;-69
2021/04/13 05:18:56;;;;;;;4.47;3.33;;;13.70;98.20;;;;;;5092482;28;20027;-71
2021/04/13 05:21:22;;;;;;;4.53;3.80;;;13.70;98.20;;;;;;5092512;28;20101;-70
2021/04/13 05:23:47;;;;;;;4.80;3.20;;;13.70;98.40;;;;;;5092055;28;20028;-69
2021/04/13 05:26:13;;;;;;;6.88;3.90;;;13.70;98.40;;;;;;5092326;28;20020;-70
2021/04/13 05:28:39;;;;;;;4.97;3.40;;;13.70;98.30;;;;;;5092348;28;20046;-72
2021/04/13 05:31:05;;;;;;;5.72;3.55;;;13.60;97.90;;;;;;5077357;28;20416;-71
2021/04/13 05:33:31;;;;;;;5.50;3.60;;;13.60;98.30;;;;;;5092258;28;20059;-70
2021/04/13 05:35:59;;;;;;;6.03;3.75;;;13.60;98.20;;;;;;5092294;28;20032;-70
2021/04/13 05:38:34;;;;;;;4.80;3.58;;;13.60;98.10;;;;;;5076379;28;20566;-68
2021/04/13 05:41:01;;;;;;;4.78;3.67;;;13.60;98.10;;;;;;5061901;28;20036;-69
2021/04/13 05:43:28;;;;;;;5.57;3.88;;;13.60;98.30;;;;;;5072040;28;20031;-69
2021/04/13 05:45:57;;;;;;;7.03;3.90;;;13.60;98.20;;;;;;5069557;28;20016;-70
2021/04/13 05:48:24;;;;;;;5.88;4.00;;;13.60;98.90;;;;;;5075928;28;20020;-68
2021/04/13 05:50:51;;;;;;;12.10;3.60;;;13.60;97.10;;;;;;5071973;28;20039;-70
2021/04/13 05:53:16;;;;;;;7.57;3.85;;;13.60;96.30;;;;;;5065462;28;20024;-66
2021/04/13 05:55:42;;;;;;;21.10;6.00;;;13.60;95.50;;;;;;5088337;28;20429;-66
2021/04/13 05:58:13;;;;;;;17.02;7.30;;;13.40;94.70;;;;;;5092021;28;20020;-68
2021/04/13 06:00:39;;;;;;;18.38;8.68;;;13.10;93.60;;;;;;5078940;28;20511;-65
2021/04/13 06:03:05;;;;;;;14.32;9.35;;;12.80;93.30;;;;;;5071552;28;20027;-68
2021/04/13 06:05:31;;;;;;;19.38;10.98;;;12.60;92.90;;;;;;5075557;28;20032;-66
2021/04/13 06:07:57;;;;;;;16.35;10.27;;;12.40;92.30;;;;;;5084357;28;20376;-65
2021/04/13 06:10:25;;;;;;;16.95;10.73;;;12.30;92.10;;;;;;5065141;28;20089;-68
2021/04/13 06:12:52;;;;;;;11.55;8.43;;;12.20;91.80;;;;;;5082575;28;20021;-73
2021/04/13 06:15:20;;;;;;;13.43;8.75;;;12.60;92.10;;;;;;5071498;28;20025;-69
2021/04/13 06:17:46;;;;;;;11.18;7.53;;;13.00;90.80;;;;;;5070916;28;20039;-69
2021/04/13 06:20:12;;;;;;;13.32;8.40;;;13.30;90.00;;;;;;5088959;28;20020;-69
2021/04/13 06:22:38;;;;;;;13.32;8.77;;;13.50;88.80;;;;;;5071624;28;20095;-68
2021/04/13 06:25:04;;;;;;;12.10;7.68;;;13.50;87.70;;;;;;5073074;28;20029;-69
2021/04/13 06:27:30;;;;;;;9.52;6.15;;;13.60;88.10;;;;;;5071395;28;20021;-69
2021/04/13 06:29:55;;;;;;;10.32;7.38;;;13.70;87.80;;;;;;5071406;28;20380;-69
2021/04/13 06:32:24;;;;;;;10.88;7.93;;;13.70;87.40;;;;;;5084935;28;20031;-69
2021/04/13 06:34:50;;;;;;;11.20;7.70;;;13.80;87.20;;;;;;5092728;28;20107;-69
2021/04/13 06:37:16;;;;;;;11.57;8.20;;;13.70;86.90;;;;;;5076156;28;20174;-69
2021/04/13 06:39:41;;;;;;;12.05;8.30;;;13.70;87.30;;;;;;5075112;28;20078;-69
2021/04/13 06:42:32;;;;;;;11.73;7.82;;;13.70;87.60;;;;;;5087391;28;20036;-69
2021/04/13 06:45:11;;;;;;;9.50;6.45;;;13.70;87.20;;;;;;5075093;28;20028;-68
2021/04/13 06:47:51;;;;;;;13.88;9.32;;;13.90;88.40;;;;;;5083124;28;20387;-69
2021/04/13 06:50:53;;;;;;;13.30;10.10;;;13.60;87.00;;;;;;5095288;28;20020;-69
2021/04/13 06:53:50;;;;;;;13.68;9.45;;;13.30;87.30;;;;;;5085260;28;20162;-68
2021/04/13 06:56:21;;;;;;;14.07;9.57;;;13.30;87.60;;;;;;5074805;28;20049;-68
2021/04/13 06:59:13;;;;;;;14.75;9.25;;;13.30;87.70;;;;;;5074719;28;20027;-71
2021/04/13 07:01:40;;;;;;;14.85;9.48;;;13.20;87.60;;;;;;5067523;28;20487;-72
2021/04/13 07:04:13;;;;;;;10.80;9.25;;;13.20;88.50;;;;;;5068598;28;20481;-74
2021/04/13 07:06:54;;;;;;;11.88;8.43;;;13.30;88.60;;;;;;5068873;28;20048;-74
2021/04/13 07:09:32;;;;;;;10.18;7.18;;;13.40;88.50;;;;;;5059115;28;20121;-76
2021/04/13 07:12:12;;;;;;;11.55;7.15;;;13.70;90.00;;;;;;5066236;28;20477;-76
2021/04/13 07:15:02;;;;;;;9.27;6.25;;;14.60;90.20;;;;;;5072453;28;20023;-76
2021/04/13 07:18:15;;;;;;;12.45;6.65;;;15.00;89.20;;;;;;5030400;28;20054;-74
2021/04/13 07:20:51;;;;;;;8.35;5.55;;;15.30;88.30;;;;;;5063527;28;20131;-72
2021/04/13 07:23:27;;;;;;;9.82;5.75;;;15.50;87.20;;;;;;5070860;28;20032;-72
2021/04/13 07:26:08;;;;;;;9.93;5.00;;;15.60;85.70;;;;;;5073724;28;20494;-73
2021/04/13 07:28:47;;;;;;;9.10;5.57;;;15.70;85.40;;;;;;5070685;28;20020;-72
2021/04/13 07:31:20;;;;;;;6.78;5.40;;;15.70;86.50;;;;;;5073135;28;20362;-72
2021/04/13 07:33:46;;;;;;;7.97;5.35;;;15.70;85.00;;;;;;5071068;28;20078;-72
2021/04/13 07:36:23;;;;;;;10.15;5.25;;;15.70;85.20;;;;;;5074182;28;20037;-72
2021/04/13 07:38:51;;;;;;;7.80;4.95;;;15.60;86.10;;;;;;5054928;28;20104;-74
2021/04/13 07:41:26;;;;;;;7.43;5.10;;;15.50;86.50;;;;;;5071577;28;20366;-76
2021/04/13 07:44:05;;;;;;;7.70;5.25;;;15.50;86.70;;;;;;5077629;28;20058;-74
2021/04/13 07:46:51;;;;;;;7.30;5.00;;;15.50;88.00;;;;;;5072220;28;20100;-75
2021/04/13 07:49:58;;;;;;;8.52;5.50;;;15.40;86.90;;;;;;5062086;28;20445;-75
2021/04/13 07:52:42;;;;;;;10.98;5.32;;;15.40;88.70;;;;;;5094848;28;20077;-77
2021/04/13 07:55:37;;;;;;;6.88;4.53;;;15.40;86.60;;;;;;5074772;28;20150;-72
2021/04/13 07:58:17;;;;;;;7.93;4.45;;;15.80;87.40;;;;;;5066504;28;20034;-73
2021/04/13 08:00:46;;;;;;;7.28;4.30;;;16.80;85.30;;;;;;5077462;28;20165;-69
2021/04/13 08:03:24;;;;;;;5.38;4.10;;;17.80;82.80;;;;;;5073818;28;20388;-74
2021/04/13 08:05:52;;;;;;;6.07;4.30;;;17.70;83.60;;;;;;5073680;28;20107;-73
2021/04/13 08:08:32;;;;;;;7.22;4.20;;;17.60;84.20;;;;;;5073535;28;20118;-71
2021/04/13 08:11:22;;;;;;;7.40;4.15;;;18.40;83.20;;;;;;5073807;28;20488;-69
2021/04/13 08:13:51;;;;;;;8.25;4.20;;;17.90;86.50;;;;;;5065561;28;20064;-69
2021/04/13 08:16:32;;;;;;;5.45;3.70;;;17.70;86.70;;;;;;5072545;28;20116;-70
2021/04/13 08:19:25;;;;;;;6.07;3.85;;;18.60;85.30;;;;;;5067154;28;20028;-71
2021/04/13 08:22:11;;;;;;;5.57;3.78;;;18.40;86.80;;;;;;5073551;28;20111;-71
2021/04/13 08:24:52;;;;;;;5.53;3.50;;;17.90;87.70;;;;;;5073333;28;20082;-72
2021/04/13 08:27:28;;;;;;;8.02;3.25;;;18.50;87.20;;;;;;5073064;28;20056;-68
2021/04/13 08:30:06;;;;;;;5.75;3.42;;;18.70;87.60;;;;;;5073145;28;20020;-72
2021/04/13 08:32:54;;;;;;;4.85;2.85;;;18.30;89.10;;;;;;5073053;28;20056;-73
2021/04/13 08:35:37;;;;;;;5.97;3.45;;;18.00;89.80;;;;;;5072904;28;20573;-69
2021/04/13 08:38:36;;;;;;;4.57;3.08;;;18.90;88.00;;;;;;5071712;28;20020;-72
2021/04/13 08:41:22;;;;;;;6.82;3.05;;;18.60;89.70;;;;;;5072816;28;20108;-69
2021/04/13 08:43:53;;;;;;;4.20;2.55;;;18.30;90.30;;;;;;5072921;28;20032;-66
2021/04/13 08:46:44;;;;;;;5.03;3.20;;;18.70;90.10;;;;;;5072905;28;20370;-66
2021/04/13 08:49:21;;;;;;;5.28;3.25;;;19.00;90.10;;;;;;5072394;28;20081;-73
2021/04/13 08:52:08;;;;;;;5.70;2.80;;;18.70;91.10;;;;;;5072858;28;20089;-71
2021/04/13 08:54:35;;;;;;;4.93;2.78;;;18.40;91.20;;;;;;5072154;28;20048;-68
2021/04/13 08:57:21;;;;;;;5.63;2.80;;;18.90;90.70;;;;;;5072355;28;20025;-68
2021/04/13 08:59:52;;;;;;;4.63;2.80;;;19.00;90.80;;;;;;5070518;28;20098;-72
2021/04/13 09:02:27;;;;;;;7.95;2.95;;;18.70;91.70;;;;;;5052725;28;20396;-70
2021/04/13 09:05:04;;;;;;;4.63;2.80;;;18.50;91.80;;;;;;5051345;28;20431;-72
2021/04/13 09:07:37;;;;;;;5.32;2.83;;;18.80;91.40;;;;;;5052973;28;20028;-71
2021/04/13 09:10:36;;;;;;;4.93;2.90;;;19.20;91.60;;;;;;5052494;28;20070;-65
2021/04/13 09:13:20;;;;;;;5.38;2.40;;;19.00;92.20;;;;;;5052441;28;20496;-64
2021/04/13 09:15:56;;;;;;;3.38;2.50;;;18.70;92.50;;;;;;5052593;28;20102;-71
2021/04/13 09:18:46;;;;;;;3.92;2.50;;;18.60;92.90;;;;;;5056564;28;20387;-69
2021/04/13 09:21:23;;;;;;;4.68;2.72;;;19.30;91.60;;;;;;5052231;28;20021;-77
2021/04/13 09:23:58;;;;;;;4.85;2.50;;;19.30;92.70;;;;;;5052031;28;20451;-69
2021/04/13 09:26:42;;;;;;;3.47;2.25;;;19.10;93.00;;;;;;5054188;28;20049;-68
2021/04/13 09:29:37;;;;;;;4.13;2.58;;;18.90;93.20;;;;;;5045470;28;20029;-67
2021/04/13 09:32:07;;;;;;;4.88;2.75;;;18.80;93.40;;;;;;5051805;28;20029;-65
2021/04/13 09:35:00;;;;;;;5.13;2.45;;;19.30;92.30;;;;;;5052119;28;20029;-69
2021/04/13 09:37:56;;;;;;;5.85;2.53;;;19.30;93.00;;;;;;5051935;28;20225;-74
2021/04/13 09:40:26;;;;;;;4.05;2.15;;;19.20;93.30;;;;;;5051815;28;20039;-73
2021/04/13 09:43:06;;;;;;;4.68;2.22;;;19.10;93.30;;;;;;5051867;28;20048;-74
2021/04/13 09:45:52;;;;;;;3.30;2.15;;;18.90;93.30;;;;;;5052213;28;20361;-74
2021/04/13 09:48:59;;;;;;;4.90;2.10;;;19.30;93.20;;;;;;5056091;28;20027;-65
2021/04/13 09:52:00;;;;;;;3.38;2.15;;;19.50;93.10;;;;;;5071447;28;20101;-65
2021/04/13 09:54:42;;;;;;;4.72;2.17;;;19.40;93.40;;;;;;5072046;28;20099;-75
2021/04/13 09:57:22;;;;;;;5.60;2.13;;;19.30;93.50;;;;;;5071609;28;20036;-72
2021/04/13 10:00:15;;;;;;;4.15;2.13;;;19.10;93.30;;;;;;5070083;28;20017;-66
2021/04/13 10:03:01;;;;;;;3.67;2.00;;;19.30;92.50;;;;;;5070933;28;20388;-69
2021/04/13 10:05:34;;;;;;;5.28;2.20;;;19.80;91.90;;;;;;5071693;28;20025;-71
2021/04/13 10:08:09;;;;;;;3.10;2.03;;;19.60;92.10;;;;;;5071872;28;20067;-70
2021/04/13 10:10:57;;;;;;;6.22;2.67;;;19.50;92.10;;;;;;5077915;28;20029;-70
2021/04/13 10:13:52;;;;;;;6.68;2.28;;;19.30;91.50;;;;;;5074861;28;20035;-71
2021/04/13 10:16:55;;;;;;;3.30;2.20;;;19.80;89.90;;;;;;5068850;28;20393;-70
2021/04/13 10:19:48;;;;;;;3.95;2.13;;;19.60;90.10;;;;;;5065579;28;20017;-71
2021/04/13 10:22:35;;;;;;;3.55;2.20;;;19.30;89.80;;;;;;5090249;28;20035;-72
2021/04/13 10:25:28;;;;;;;6.32;2.47;;;19.30;90.40;;;;;;5096101;28;20060;-71
2021/04/13 10:28:18;;;;;;;4.65;2.03;;;19.50;90.30;;;;;;5080687;28;20021;-71
2021/04/13 10:30:54;;;;;;;3.70;1.80;;;19.80;88.90;;;;;;5057511;28;20032;-70
2021/04/13 10:33:47;;;;;;;3.58;2.10;;;19.70;88.80;;;;;;5078720;28;20051;-71
2021/04/13 10:36:36;;;;;;;2.75;1.83;;;19.70;88.90;;;;;;5072755;28;20433;-72
2021/04/13 10:39:08;;;;;;;3.72;1.75;;;19.60;89.10;;;;;;5078365;28;20507;-76
2021/04/13 10:42:21;;;;;;;4.43;1.80;;;19.60;89.30;;;;;;5055441;28;20036;-74
2021/04/13 10:44:55;;;;;;;4.10;1.88;;;19.50;89.30;;;;;;5082320;28;20028;-76
2021/04/13 10:47:30;;;;;;;2.75;1.70;;;19.50;89.40;;;;;;5094654;28;20024;-73
2021/04/13 10:50:18;;;;;;;3.63;1.67;;;19.80;88.80;;;;;;5095200;28;20024;-69
2021/04/13 10:53:24;;;;;;;2.80;1.60;;;19.80;88.50;;;;;;5077097;28;20028;-71
2021/04/13 10:55:55;;;;;;;3.67;1.92;;;19.70;88.40;;;;;;5074844;28;20051;-72
2021/04/13 10:58:39;;;;;;;3.35;1.70;;;19.50;88.70;;;;;;5074763;28;20744;-67
2021/04/13 11:01:30;;;;;;;3.92;1.63;;;19.50;88.90;;;;;;5075162;28;20024;-69
2021/04/13 11:04:33;;;;;;;1.95;1.45;;;19.40;88.90;;;;;;5074804;28;20028;-68
2021/04/13 11:07:19;;;;;;;3.95;1.63;;;19.50;89.10;;;;;;5074723;28;20040;-68
2021/04/13 11:09:59;;;;;;;2.25;1.50;;;19.80;88.20;;;;;;5056639;28;20030;-69
2021/04/13 11:12:38;;;;;;;2.25;1.30;;;19.80;88.10;;;;;;5074803;28;20047;-73
2021/04/13 11:15:12;;;;;;;3.90;1.45;;;19.70;88.40;;;;;;5074669;28;20099;-68
2021/04/13 11:17:55;;;;;;;2.25;1.38;;;19.70;88.50;;;;;;5074240;28;20037;-74
2021/04/13 11:20:35;;;;;;;3.75;1.70;;;19.60;88.60;;;;;;5070912;28;20017;-70
2021/04/13 11:23:16;;;;;;;2.75;1.52;;;19.60;88.70;;;;;;5070052;28;20037;-75
2021/04/13 11:25:53;;;;;;;3.58;1.70;;;19.60;88.80;;;;;;5073234;28;20049;-74
2021/04/13 11:28:52;;;;;;;2.22;1.58;;;19.60;88.70;;;;;;5070780;28;20027;-74
2021/04/13 11:31:23;;;;;;;2.28;1.48;;;19.80;88.80;;;;;;5071334;28;20135;-67
2021/04/13 11:33:49;;;;;;;3.78;1.63;;;20.10;87.90;;;;;;5072262;28;20484;-67
2021/04/13 11:36:17;;;;;;;2.08;1.50;;;19.80;87.50;;;;;;5072835;28;20037;-73
2021/04/13 11:38:49;;;;;;;3.22;1.70;;;19.80;88.30;;;;;;5072813;28;20056;-69
2021/04/13 11:41:39;;;;;;;2.83;1.63;;;19.80;88.50;;;;;;5072996;28;20111;-71
2021/04/13 11:44:34;;;;;;;4.05;1.75;;;19.80;88.60;;;;;;5071478;28;20020;-69
2021/04/13 11:47:26;;;;;;;2.75;1.40;;;19.80;88.50;;;;;;5043289;28;20032;-72
2021/04/13 11:50:01;;;;;;;3.42;1.42;;;19.80;88.50;;;;;;5073909;28;20472;-69
2021/04/13 11:52:52;;;;;;;11.55;2.50;;;19.80;88.50;;;;;;5072729;28;20116;-68
2021/04/13 11:55:27;;;;;;;7.65;2.53;;;19.80;93.60;;;;;;5055588;28;20381;-72
2021/04/13 11:58:02;;;;;;;11.82;2.63;;;19.80;92.10;;;;;;5073682;28;20032;-72
2021/04/13 12:00:29;;;;;;;6.68;2.13;;;19.90;92.00;;;;;;5075673;28;20435;-73
2021/04/13 12:03:05;;;;;;;10.57;2.55;;;19.90;91.60;;;;;;5073771;28;20032;-71
2021/04/13 12:05:31;;;;;;;7.00;2.25;;;20.00;91.50;;;;;;5073643;28;20033;-70
2021/04/13 12:07:57;;;;;;;8.93;2.08;;;20.10;91.20;;;;;;5073665;28;20473;-68
2021/04/13 12:10:32;;;;;;;6.18;2.35;;;20.20;91.00;;;;;;5073910;28;20383;-71
2021/04/13 12:13:00;;;;;;;5.55;2.17;;;20.20;91.00;;;;;;5073265;28;20017;-71
2021/04/13 12:15:34;;;;;;;8.00;1.95;;;20.30;91.10;;;;;;5078559;28;20392;-75
2021/04/13 12:18:37;;;;;;;5.13;1.77;;;20.40;90.70;;;;;;5093747;28;20039;-77
2021/04/13 12:21:21;;;;;;;7.30;1.60;;;20.40;90.50;;;;;;5077217;28;20081;-74
2021/04/13 12:23:58;;;;;;;4.53;1.70;;;20.50;90.20;;;;;;5073483;28;20556;-76
2021/04/13 12:26:43;;;;;;;4.47;1.80;;;20.50;90.00;;;;;;5073310;28;20485;-74
2021/04/13 12:29:32;;;;;;;5.40;1.77;;;20.60;89.50;;;;;;5055363;28;20397;-72
2021/04/13 12:32:13;;;;;;;4.65;1.70;;;20.70;89.60;;;;;;5086476;28;20039;-70
2021/04/13 12:34:58;;;;;;;3.78;1.52;;;20.70;90.00;;;;;;5093699;28;20422;-70
2021/04/13 12:37:36;;;;;;;6.18;1.60;;;20.80;89.40;;;;;;5093234;28;20055;-69
2021/04/13 12:40:20;;;;;;;3.28;1.35;;;20.80;89.10;;;;;;5093255;28;20027;-71
2021/04/13 12:43:05;;;;;;;;;;;20.80;88.30;;;;;;5093651;28;20032;-68
2021/04/13 12:45:50;;;;;;;4.50;1.42;;;20.90;88.10;;;;;;5059009;28;19917;-68
2021/04/13 12:48:40;;;;;;;3.85;1.33;;;21.00;87.80;;;;;;5073017;28;20051;-71
2021/04/13 12:51:08;;;;;;;3.45;1.80;;;21.00;88.00;;;;;;5071994;28;20023;-68
2021/04/13 12:53:34;;;;;;;4.18;1.38;;;21.10;86.90;;;;;;5078434;28;20090;-72
2021/04/13 12:56:07;;;;;;;3.20;1.40;;;21.10;87.70;;;;;;5072809;28;20454;-69
2021/04/13 12:58:39;;;;;;;2.78;1.30;;;21.30;88.30;;;;;;5072702;28;20024;-69
2021/04/13 13:01:06;;;;;;;4.30;1.20;;;21.40;88.90;;;;;;5072188;28;20032;-69
2021/04/13 13:03:38;;;;;;;4.90;1.48;;;21.50;89.60;;;;;;5090439;28;20028;-69
2021/04/13 13:06:24;;;;;;;4.00;1.33;;;21.60;89.10;;;;;;5092742;28;20028;-69
2021/04/13 13:09:05;;;;;;;5.45;1.55;;;21.70;89.50;;;;;;5075096;28;20112;-68
2021/04/13 13:11:31;;;;;;;3.42;1.38;;;21.80;90.00;;;;;;5072576;28;20174;-69
2021/04/13 13:13:57;;;;;;;3.60;1.30;;;21.90;90.30;;;;;;5063851;28;20056;-71
2021/04/13 13:16:26;;;;;;;4.22;1.52;;;21.90;90.30;;;;;;5068513;28;20506;-72
2021/04/13 13:18:56;;;;;;;2.92;1.40;;;22.00;90.50;;;;;;5072331;28;20376;-71
2021/04/13 13:21:46;;;;;;;4.35;1.10;;;22.10;90.60;;;;;;5077025;28;20032;-73
2021/04/13 13:24:25;;;;;;;2.95;1.17;;;22.10;90.70;;;;;;5072225;28;20039;-74
2021/04/13 13:26:51;;;;;;;2.13;1.25;;;22.20;90.60;;;;;;5072160;28;20037;-76
2021/04/13 13:29:16;;;;;;;2.17;1.00;;;22.10;90.50;;;;;;5072168;28;20102;-72
2021/04/13 13:31:43;;;;;;;3.00;1.30;;;22.10;90.50;;;;;;5087587;28;20028;-72